Time;durP1;ratioP1;P1;durP2;ratioP2;P2;SDS_P1;SDS_P2;PMS_P1;PMS_P2;Temp;Humidity;BMP_temperature;BMP_pressure;BME280_temperature;BME280_humidity;BME280_pressure;Samples;Min_cycle;Max_cycle;Signal;HPM_P1;HPM_P2
2022/09/21 00:00:26;;;;;;;4.13;3.60;;;;;;;;;;5118977;27;20293;-65
2022/09/21 00:02:57;;;;;;;3.30;3.00;;;;;;;;;;5116228;27;20258;-64
2022/09/21 00:05:25;;;;;;;6.43;3.63;;;;;;;;;;5114364;27;20224;-65
2022/09/21 00:07:52;;;;;;;4.47;3.63;;;;;;;;;;5133973;27;20242;-65
2022/09/21 00:10:20;;;;;;;4.63;3.50;;;;;;;;;;5116060;27;20640;-65
2022/09/21 00:12:48;;;;;;;7.73;3.90;;;;;;;;;;5115408;27;20772;-65
2022/09/21 00:15:19;;;;;;;7.50;3.90;;;;;;;;;;5115266;27;20295;-65
2022/09/21 00:17:47;;;;;;;5.23;4.10;;;;;;;;;;5113561;27;20235;-65
2022/09/21 00:20:14;;;;;;;6.73;4.03;;;;;;;;;;5107495;27;20204;-65
2022/09/21 00:22:42;;;;;;;6.13;4.03;;;;;;;;;;5115618;27;20235;-66
2022/09/21 00:25:10;;;;;;;5.20;3.77;;;;;;;;;;5115391;27;20686;-65
2022/09/21 00:27:37;;;;;;;5.53;4.20;;;;;;;;;;5115028;27;20239;-65
2022/09/21 00:30:05;;;;;;;7.20;4.07;;;;;;;;;;5115213;27;20239;-66
2022/09/21 00:32:34;;;;;;;8.83;4.30;;;;;;;;;;5115080;27;20238;-64
2022/09/21 00:35:02;;;;;;;6.30;4.07;;;;;;;;;;5115032;27;20216;-63
2022/09/21 00:37:29;;;;;;;4.67;3.80;;;;;;;;;;5114790;27;20287;-66
2022/09/21 00:39:57;;;;;;;6.03;4.10;;;;;;;;;;5133049;27;20566;-66
2022/09/21 00:42:29;;;;;;;5.77;4.37;;;;;;;;;;5114664;27;20299;-66
2022/09/21 00:44:57;;;;;;;5.47;4.17;;;;;;;;;;5115044;27;20302;-66
2022/09/21 00:47:32;;;;;;;5.60;4.13;;;;;;;;;;5113335;27;20255;-66
2022/09/21 00:50:01;;;;;;;4.33;3.30;;;;;;;;;;5114975;27;20283;-66
2022/09/21 00:52:31;;;;;;;4.33;3.67;;;;;;;;;;5115896;27;20314;-65
2022/09/21 00:55:08;;;;;;;6.77;3.77;;;;;;;;;;5133536;27;20311;-65
2022/09/21 00:57:35;;;;;;;5.80;4.20;;;;;;;;;;5111849;27;20209;-65
2022/09/21 01:00:07;;;;;;;7.37;3.60;;;;;;;;;;5114856;27;20200;-65
2022/09/21 01:02:35;;;;;;;3.83;3.43;;;;;;;;;;5112627;27;20526;-65
2022/09/21 01:05:04;;;;;;;5.17;3.80;;;;;;;;;;5128095;27;20306;-66
2022/09/21 01:07:33;;;;;;;4.23;3.53;;;;;;;;;;5114516;27;20287;-66
2022/09/21 01:10:04;;;;;;;6.03;4.10;;;;;;;;;;5122579;27;20581;-66
2022/09/21 01:12:50;;;;;;;6.07;3.93;;;;;;;;;;5114179;27;20219;-66
2022/09/21 01:15:38;;;;;;;6.03;4.33;;;;;;;;;;5114437;27;20223;-64
2022/09/21 01:18:12;;;;;;;4.47;4.00;;;;;;;;;;5090459;27;20269;-65
2022/09/21 01:21:03;;;;;;;9.00;4.30;;;;;;;;;;5114418;27;20204;-66
2022/09/21 01:23:42;;;;;;;4.93;4.33;;;;;;;;;;5114099;27;20200;-66
2022/09/21 01:26:28;;;;;;;7.13;4.63;;;;;;;;;;5117077;27;20688;-65
2022/09/21 01:28:56;;;;;;;9.10;5.63;;;;;;;;;;5113855;27;20295;-65
2022/09/21 01:31:29;;;;;;;6.90;5.53;;;;;;;;;;5114370;27;20266;-65
2022/09/21 01:34:00;;;;;;;8.67;5.97;;;;;;;;;;5112295;27;20220;-65
2022/09/21 01:36:28;;;;;;;6.03;5.00;;;;;;;;;;5112741;27;20192;-66
2022/09/21 01:39:09;;;;;;;8.53;5.70;;;;;;;;;;5113467;27;20210;-66
2022/09/21 01:41:38;;;;;;;9.10;6.13;;;;;;;;;;5093856;28;20206;-65
2022/09/21 01:44:11;;;;;;;10.00;6.50;;;;;;;;;;5124173;27;20220;-64
2022/09/21 01:46:39;;;;;;;9.80;6.13;;;;;;;;;;5105897;27;20642;-65
2022/09/21 01:49:09;;;;;;;12.77;6.27;;;;;;;;;;5114069;27;20617;-65
2022/09/21 01:51:40;;;;;;;8.40;5.60;;;;;;;;;;5113227;27;20278;-65
2022/09/21 01:54:11;;;;;;;7.77;5.63;;;;;;;;;;5113861;27;20662;-65
2022/09/21 01:56:41;;;;;;;8.17;5.27;;;;;;;;;;5113512;27;20282;-65
2022/09/21 01:59:18;;;;;;;7.13;5.60;;;;;;;;;;5113666;27;20669;-65
2022/09/21 02:01:49;;;;;;;7.60;4.80;;;;;;;;;;5113873;27;20246;-65
2022/09/21 02:04:17;;;;;;;6.47;4.30;;;;;;;;;;5113208;27;20219;-65
2022/09/21 02:06:46;;;;;;;6.60;4.83;;;;;;;;;;5113164;27;20199;-64
2022/09/21 02:09:14;;;;;;;5.27;4.77;;;;;;;;;;5113289;27;20290;-66
2022/09/21 02:11:42;;;;;;;7.43;4.60;;;;;;;;;;5113741;27;20672;-66
2022/09/21 02:14:17;;;;;;;5.23;4.73;;;;;;;;;;5112719;27;20262;-65
2022/09/21 02:16:44;;;;;;;8.07;5.03;;;;;;;;;;5113373;27;20198;-66
2022/09/21 02:19:11;;;;;;;6.77;5.50;;;;;;;;;;5112515;27;20208;-65
2022/09/21 02:21:56;;;;;;;8.63;4.80;;;;;;;;;;5113651;27;20291;-66
2022/09/21 02:24:30;;;;;;;7.30;5.30;;;;;;;;;;5113030;27;20272;-64
2022/09/21 02:26:57;;;;;;;9.43;4.80;;;;;;;;;;5126551;27;20317;-66
2022/09/21 02:29:31;;;;;;;8.70;5.67;;;;;;;;;;5130855;27;20526;-64
2022/09/21 02:32:22;;;;;;;10.30;6.90;;;;;;;;;;5113239;27;20206;-65
2022/09/21 02:34:54;;;;;;;9.20;6.57;;;;;;;;;;5090115;27;20311;-65
2022/09/21 02:37:32;;;;;;;9.10;6.23;;;;;;;;;;5112759;27;20278;-64
2022/09/21 02:40:08;;;;;;;9.20;5.63;;;;;;;;;;5108550;28;20749;-66
2022/09/21 02:42:41;;;;;;;8.43;5.03;;;;;;;;;;5122660;27;20207;-65
2022/09/21 02:45:18;;;;;;;8.00;5.40;;;;;;;;;;5112555;27;20310;-64
2022/09/21 02:47:48;;;;;;;6.07;4.97;;;;;;;;;;5111765;27;20394;-65
2022/09/21 02:50:20;;;;;;;11.50;5.17;;;;;;;;;;5116535;27;20235;-66
2022/09/21 02:52:47;;;;;;;4.33;3.70;;;;;;;;;;5133348;27;20207;-64
2022/09/21 02:55:16;;;;;;;3.07;2.87;;;;;;;;;;5137230;27;20215;-64
2022/09/21 02:57:45;;;;;;;3.50;2.87;;;;;;;;;;5112529;27;20283;-64
2022/09/21 03:00:14;;;;;;;4.10;3.67;;;;;;;;;;5112187;27;20231;-64
2022/09/21 03:02:43;;;;;;;3.97;3.57;;;;;;;;;;5105522;28;20306;-65
2022/09/21 03:05:11;;;;;;;3.87;3.57;;;;;;;;;;5111920;28;20317;-65
2022/09/21 03:07:39;;;;;;;3.10;2.90;;;;;;;;;;5112681;28;20301;-65
2022/09/21 03:10:08;;;;;;;3.00;2.80;;;;;;;;;;5112421;28;20203;-66
2022/09/21 03:12:35;;;;;;;2.97;2.67;;;;;;;;;;5130915;28;20788;-65
2022/09/21 03:15:03;;;;;;;2.80;2.60;;;;;;;;;;5112273;28;20302;-64
2022/09/21 03:17:31;;;;;;;2.47;2.37;;;;;;;;;;5112746;28;20345;-65
2022/09/21 03:19:58;;;;;;;2.80;2.50;;;;;;;;;;5112393;28;20286;-65
2022/09/21 03:22:26;;;;;;;2.67;2.47;;;;;;;;;;5112793;28;20768;-66
2022/09/21 03:24:56;;;;;;;2.73;2.53;;;;;;;;;;5122750;27;20266;-66
2022/09/21 03:27:23;;;;;;;3.20;2.90;;;;;;;;;;5129235;27;20211;-65
2022/09/21 03:29:51;;;;;;;3.07;2.53;;;;;;;;;;5112093;28;20329;-65
2022/09/21 03:32:18;;;;;;;2.70;2.50;;;;;;;;;;5112281;28;20230;-63
2022/09/21 03:34:46;;;;;;;2.90;2.70;;;;;;;;;;5111780;28;20709;-66
2022/09/21 03:37:13;;;;;;;3.10;2.90;;;;;;;;;;5112079;28;20691;-66
2022/09/21 03:39:40;;;;;;;4.50;3.00;;;;;;;;;;5112404;28;20365;-66
2022/09/21 03:42:08;;;;;;;4.03;3.07;;;;;;;;;;5115598;28;20638;-65
2022/09/21 03:44:36;;;;;;;3.70;3.40;;;;;;;;;;5104312;28;20268;-65
2022/09/21 03:47:05;;;;;;;4.50;3.40;;;;;;;;;;5112305;28;20207;-64
2022/09/21 03:49:33;;;;;;;6.03;2.90;;;;;;;;;;5112656;28;20250;-63
2022/09/21 03:52:01;;;;;;;3.20;2.93;;;;;;;;;;5111484;27;20296;-65
2022/09/21 03:54:28;;;;;;;4.63;3.40;;;;;;;;;;5115441;27;20223;-66
2022/09/21 03:56:56;;;;;;;5.27;3.40;;;;;;;;;;5149063;27;20206;-65
2022/09/21 03:59:23;;;;;;;6.97;3.80;;;;;;;;;;5119376;27;20282;-64
2022/09/21 04:01:50;;;;;;;5.80;4.30;;;;;;;;;;5116465;27;20685;-66
2022/09/21 04:04:18;;;;;;;4.80;4.10;;;;;;;;;;5115976;27;20227;-66
2022/09/21 04:06:46;;;;;;;5.87;4.47;;;;;;;;;;5115246;27;20215;-66
2022/09/21 04:09:13;;;;;;;6.07;5.03;;;;;;;;;;5116199;27;20293;-64
2022/09/21 04:11:40;;;;;;;6.20;4.43;;;;;;;;;;5113445;27;20203;-66
2022/09/21 04:14:07;;;;;;;8.27;4.77;;;;;;;;;;5112070;27;20319;-64
2022/09/21 04:16:35;;;;;;;10.57;7.50;;;;;;;;;;5116641;27;20210;-67
2022/09/21 04:19:02;;;;;;;14.90;8.57;;;;;;;;;;5112934;27;20653;-65
2022/09/21 04:21:29;;;;;;;8.97;7.40;;;;;;;;;;5115828;27;20207;-65
2022/09/21 04:23:57;;;;;;;5.87;5.13;;;;;;;;;;5115626;27;20595;-66
2022/09/21 04:26:29;;;;;;;5.63;4.90;;;;;;;;;;5114309;27;20200;-65
2022/09/21 04:28:56;;;;;;;5.10;4.60;;;;;;;;;;5115884;27;20654;-65
2022/09/21 04:31:25;;;;;;;6.27;5.03;;;;;;;;;;5134126;27;20290;-64
2022/09/21 04:33:53;;;;;;;6.60;5.73;;;;;;;;;;5115305;27;20239;-64
2022/09/21 04:36:22;;;;;;;9.57;7.67;;;;;;;;;;5133417;27;20235;-66
2022/09/21 04:38:49;;;;;;;12.00;9.23;;;;;;;;;;5115796;27;20263;-65
2022/09/21 04:41:17;;;;;;;6.40;5.60;;;;;;;;;;5115408;27;20278;-66
2022/09/21 04:43:45;;;;;;;4.20;3.80;;;;;;;;;;5115213;27;20205;-66
2022/09/21 04:46:14;;;;;;;5.07;4.30;;;;;;;;;;5114865;27;20767;-65
2022/09/21 04:48:42;;;;;;;4.77;4.37;;;;;;;;;;5115068;27;20304;-65
2022/09/21 04:51:10;;;;;;;4.10;3.70;;;;;;;;;;5117464;27;20318;-66
2022/09/21 04:53:39;;;;;;;5.80;4.70;;;;;;;;;;5115041;27;20310;-64
2022/09/21 04:56:07;;;;;;;4.23;3.83;;;;;;;;;;5111284;28;20212;-66
2022/09/21 04:58:34;;;;;;;7.10;4.10;;;;;;;;;;5107258;27;20199;-65
2022/09/21 05:01:03;;;;;;;4.20;3.80;;;;;;;;;;5114732;27;20235;-66
2022/09/21 05:03:30;;;;;;;4.63;4.23;;;;;;;;;;5113937;27;20207;-65
2022/09/21 05:05:58;;;;;;;4.40;3.90;;;;;;;;;;5115370;27;20221;-66
2022/09/21 05:11:14;;;;;;;4.83;4.33;;;;;;;;;;5141552;27;20202;-65
2022/09/21 05:13:42;;;;;;;4.17;3.77;;;;;;;;;;5114454;27;20525;-65
2022/09/21 05:16:09;;;;;;;5.17;3.93;;;;;;;;;;5114150;27;20294;-65
2022/09/21 05:18:36;;;;;;;4.37;3.93;;;;;;;;;;5113897;27;20290;-66
2022/09/21 05:21:06;;;;;;;6.30;4.07;;;;;;;;;;5114213;27;20281;-65
2022/09/21 05:23:33;;;;;;;4.73;4.23;;;;;;;;;;5114929;27;20294;-64
2022/09/21 05:26:00;;;;;;;5.40;4.53;;;;;;;;;;5113726;27;20270;-66
2022/09/21 05:28:28;;;;;;;5.27;4.03;;;;;;;;;;5113896;27;20258;-64
2022/09/21 05:31:14;;;;;;;4.33;3.93;;;;;;;;;;5114238;27;20207;-65
2022/09/21 05:33:48;;;;;;;3.90;3.50;;;;;;;;;;5114181;27;20227;-66
2022/09/21 05:36:34;;;;;;;4.53;4.10;;;;;;;;;;5113541;27;20732;-66
2022/09/21 05:39:02;;;;;;;4.20;3.43;;;;;;;;;;5113878;27;20282;-64
2022/09/21 05:41:30;;;;;;;4.77;3.97;;;;;;;;;;5120542;27;20268;-66
2022/09/21 05:43:57;;;;;;;4.47;4.07;;;;;;;;;;5113671;27;20310;-63
2022/09/21 05:46:28;;;;;;;4.53;3.83;;;;;;;;;;5113261;27;20203;-65
2022/09/21 05:49:00;;;;;;;6.57;4.00;;;;;;;;;;5114265;27;20188;-64
2022/09/21 05:51:30;;;;;;;6.40;3.90;;;;;;;;;;5114367;27;20664;-64
2022/09/21 05:54:16;;;;;;;4.20;3.80;;;;;;;;;;5113055;27;20302;-65
2022/09/21 05:56:48;;;;;;;4.00;3.47;;;;;;;;;;5113371;27;20308;-65
2022/09/21 05:59:34;;;;;;;4.73;4.23;;;;;;;;;;5111886;27;20306;-66
2022/09/21 06:02:17;;;;;;;5.53;4.00;;;;;;;;;;5113771;27;20207;-65
2022/09/21 06:04:45;;;;;;;4.53;4.13;;;;;;;;;;5124470;27;20231;-65
2022/09/21 06:07:12;;;;;;;4.73;4.20;;;;;;;;;;5113427;27;20211;-66
2022/09/21 06:09:40;;;;;;;4.37;3.97;;;;;;;;;;5113501;27;20204;-66
2022/09/21 06:12:10;;;;;;;4.33;3.80;;;;;;;;;;5114015;27;20196;-65
2022/09/21 06:14:37;;;;;;;4.23;3.80;;;;;;;;;;5114713;27;20500;-66
2022/09/21 06:17:05;;;;;;;4.40;4.00;;;;;;;;;;5131206;27;20299;-66
2022/09/21 06:19:32;;;;;;;3.80;3.50;;;;;;;;;;5113152;27;20204;-65
2022/09/21 06:22:00;;;;;;;5.57;3.83;;;;;;;;;;5113538;27;20301;-65
2022/09/21 06:24:27;;;;;;;5.67;4.17;;;;;;;;;;5113432;27;20262;-66
2022/09/21 06:26:54;;;;;;;5.03;4.03;;;;;;;;;;5131190;27;20299;-65
2022/09/21 06:29:22;;;;;;;4.90;4.20;;;;;;;;;;5113208;27;20294;-65
2022/09/21 06:31:50;;;;;;;4.93;4.40;;;;;;;;;;5115517;27;20211;-66
2022/09/21 06:34:18;;;;;;;5.63;4.83;;;;;;;;;;5131168;27;20227;-65
2022/09/21 06:36:45;;;;;;;6.00;5.10;;;;;;;;;;5112808;27;20264;-65
2022/09/21 06:39:12;;;;;;;6.40;5.13;;;;;;;;;;5113560;27;20246;-65
2022/09/21 06:41:40;;;;;;;7.50;6.70;;;;;;;;;;5131688;27;20203;-64
2022/09/21 06:44:07;;;;;;;8.30;7.50;;;;;;;;;;5113089;27;20605;-66
2022/09/21 06:46:34;;;;;;;11.70;10.50;;;;;;;;;;5112779;27;20306;-64
2022/09/21 06:49:02;;;;;;;11.73;9.73;;;;;;;;;;5123915;27;20660;-66
2022/09/21 06:51:29;;;;;;;8.03;7.23;;;;;;;;;;5133461;27;20290;-65
2022/09/21 06:53:57;;;;;;;8.20;6.70;;;;;;;;;;5133478;27;20720;-66
2022/09/21 06:56:25;;;;;;;7.67;5.37;;;;;;;;;;5133459;27;20213;-66
2022/09/21 06:58:53;;;;;;;9.17;5.13;;;;;;;;;;5113337;28;20901;-64
2022/09/21 07:01:21;;;;;;;5.70;4.70;;;;;;;;;;5111020;27;20243;-64
2022/09/21 07:03:50;;;;;;;8.53;4.20;;;;;;;;;;5112630;28;20255;-64
2022/09/21 07:06:19;;;;;;;6.83;3.97;;;;;;;;;;5112612;28;20298;-66
2022/09/21 07:08:46;;;;;;;6.07;4.10;;;;;;;;;;5112820;28;20669;-65
2022/09/21 07:11:34;;;;;;;6.93;4.27;;;;;;;;;;5130946;28;20203;-65
2022/09/21 07:14:03;;;;;;;9.23;3.83;;;;;;;;;;5112254;28;20430;-66
2022/09/21 07:16:30;;;;;;;6.37;3.70;;;;;;;;;;5112120;28;20242;-66
2022/09/21 07:18:58;;;;;;;6.87;3.47;;;;;;;;;;5131402;28;20298;-63
2022/09/21 07:21:36;;;;;;;4.90;3.23;;;;;;;;;;5114558;28;20230;-65
2022/09/21 07:24:04;;;;;;;8.70;3.77;;;;;;;;;;5132853;27;20303;-65
2022/09/21 07:26:37;;;;;;;9.77;3.53;;;;;;;;;;5135905;27;20226;-65
2022/09/21 07:29:04;;;;;;;8.33;4.10;;;;;;;;;;5138006;27;20298;-66
2022/09/21 07:31:32;;;;;;;7.63;3.47;;;;;;;;;;5118562;27;20558;-65
2022/09/21 07:33:59;;;;;;;11.40;3.60;;;;;;;;;;5116441;27;20348;-66
2022/09/21 07:36:26;;;;;;;5.43;3.30;;;;;;;;;;5116530;27;20241;-65
2022/09/21 07:38:54;;;;;;;6.67;3.80;;;;;;;;;;5118661;27;20206;-65
2022/09/21 07:41:21;;;;;;;5.70;3.60;;;;;;;;;;5136958;27;20225;-65
2022/09/21 07:43:49;;;;;;;6.33;2.83;;;;;;;;;;5137293;27;20227;-64
2022/09/21 07:46:16;;;;;;;6.27;2.60;;;;;;;;;;5136862;27;20302;-66
2022/09/21 07:48:46;;;;;;;3.43;1.93;;;;;;;;;;5137264;27;20187;-65
2022/09/21 07:51:15;;;;;;;3.53;1.90;;;;;;;;;;5137324;27;20193;-66
2022/09/21 07:53:43;;;;;;;4.43;1.97;;;;;;;;;;5136652;27;20597;-66
2022/09/21 07:56:12;;;;;;;3.33;1.87;;;;;;;;;;5132816;27;20207;-65
2022/09/21 08:01:25;;;;;;;4.30;1.83;;;;;;;;;;5133977;27;20294;-65
2022/09/21 08:03:54;;;;;;;3.00;1.60;;;;;;;;;;5115941;27;20245;-65
2022/09/21 08:06:22;;;;;;;4.63;2.03;;;;;;;;;;5114973;27;20250;-65
2022/09/21 08:08:50;;;;;;;3.30;1.93;;;;;;;;;;5116245;27;20290;-65
2022/09/21 08:11:24;;;;;;;4.03;1.87;;;;;;;;;;5117363;27;20199;-65
2022/09/21 08:13:52;;;;;;;3.70;1.83;;;;;;;;;;5116600;27;20227;-65
2022/09/21 08:16:20;;;;;;;4.10;2.10;;;;;;;;;;5115939;27;20295;-65
2022/09/21 08:18:47;;;;;;;5.00;2.10;;;;;;;;;;5115030;27;20753;-66
2022/09/21 08:21:14;;;;;;;1.87;1.73;;;;;;;;;;5116028;27;20510;-66
2022/09/21 08:23:42;;;;;;;2.60;2.00;;;;;;;;;;5115875;27;20286;-65
2022/09/21 08:26:16;;;;;;;2.43;2.10;;;;;;;;;;5115536;27;20687;-66
2022/09/21 08:28:48;;;;;;;4.30;2.17;;;;;;;;;;5115451;27;20637;-66
2022/09/21 08:31:17;;;;;;;4.60;1.93;;;;;;;;;;5118532;27;20203;-65
2022/09/21 08:33:45;;;;;;;4.03;2.03;;;;;;;;;;5122092;27;20267;-65
2022/09/21 08:36:13;;;;;;;5.37;2.20;;;;;;;;;;5115586;27;20290;-66
2022/09/21 08:38:40;;;;;;;2.80;2.00;;;;;;;;;;5114430;27;20296;-66
2022/09/21 08:41:17;;;;;;;5.33;2.10;;;;;;;;;;5115612;27;20213;-66
2022/09/21 08:43:47;;;;;;;3.07;1.90;;;;;;;;;;5115049;27;20209;-65
2022/09/21 08:46:17;;;;;;;2.03;1.83;;;;;;;;;;5115040;27;20738;-65
2022/09/21 08:48:48;;;;;;;4.40;1.47;;;;;;;;;;5132411;27;20228;-66
2022/09/21 08:51:17;;;;;;;2.07;1.40;;;;;;;;;;5138606;27;20206;-66
2022/09/21 08:53:46;;;;;;;3.23;1.40;;;;;;;;;;5135752;27;20237;-65
2022/09/21 08:56:14;;;;;;;2.30;1.50;;;;;;;;;;5135459;27;20205;-65
2022/09/21 08:58:42;;;;;;;2.60;1.57;;;;;;;;;;5121537;27;20294;-66
2022/09/21 09:01:28;;;;;;;2.53;1.60;;;;;;;;;;5113966;27;20204;-65
2022/09/21 09:04:15;;;;;;;1.57;1.13;;;;;;;;;;5116938;27;20219;-64
2022/09/21 09:06:42;;;;;;;2.43;1.27;;;;;;;;;;5135395;27;20233;-66
2022/09/21 09:09:09;;;;;;;1.87;1.27;;;;;;;;;;5135663;27;20203;-65
2022/09/21 09:11:39;;;;;;;2.30;1.53;;;;;;;;;;5154307;27;20651;-65
2022/09/21 09:14:09;;;;;;;1.70;1.60;;;;;;;;;;5135663;27;20317;-66
2022/09/21 09:16:45;;;;;;;4.30;2.80;;;;;;;;;;5135307;27;20233;-65
2022/09/21 09:19:27;;;;;;;4.13;2.40;;;;;;;;;;5135369;27;20285;-65
2022/09/21 09:21:55;;;;;;;5.27;2.63;;;;;;;;;;5134887;27;20234;-66
2022/09/21 09:24:32;;;;;;;3.60;1.60;;;;;;;;;;5135423;27;20249;-66
2022/09/21 09:27:06;;;;;;;1.77;1.40;;;;;;;;;;5135337;27;20226;-66
2022/09/21 09:29:40;;;;;;;1.33;1.17;;;;;;;;;;5132657;27;20210;-66
2022/09/21 09:32:13;;;;;;;2.00;1.30;;;;;;;;;;5114728;27;20215;-65
2022/09/21 09:34:52;;;;;;;2.50;1.33;;;;;;;;;;5106878;27;20302;-65
2022/09/21 09:37:23;;;;;;;2.23;1.37;;;;;;;;;;5131623;27;20238;-66
2022/09/21 09:39:56;;;;;;;1.10;1.10;;;;;;;;;;5116896;27;20223;-65
2022/09/21 09:42:56;;;;;;;2.10;1.40;;;;;;;;;;5116289;27;20286;-66
2022/09/21 09:45:34;;;;;;;2.07;1.47;;;;;;;;;;5080030;27;20322;-64
2022/09/21 09:48:13;;;;;;;3.20;1.43;;;;;;;;;;5113970;27;20298;-65
2022/09/21 09:50:42;;;;;;;1.93;1.50;;;;;;;;;;5114376;27;20235;-65
2022/09/21 09:53:12;;;;;;;1.47;1.23;;;;;;;;;;5114144;27;20302;-65
2022/09/21 09:56:06;;;;;;;2.00;1.40;;;;;;;;;;5121644;27;20283;-65
2022/09/21 09:58:46;;;;;;;2.33;1.40;;;;;;;;;;5117303;27;20200;-66
2022/09/21 10:01:33;;;;;;;2.23;1.30;;;;;;;;;;5113342;27;20665;-65
2022/09/21 10:04:14;;;;;;;1.60;1.33;;;;;;;;;;5131600;27;20308;-65
2022/09/21 10:06:41;;;;;;;1.60;1.20;;;;;;;;;;5113571;27;20718;-66
2022/09/21 10:09:30;;;;;;;1.10;1.10;;;;;;;;;;5131699;27;20681;-66
2022/09/21 10:12:02;;;;;;;5.37;1.40;;;;;;;;;;5134100;27;20322;-66
2022/09/21 10:14:36;;;;;;;1.53;1.00;;;;;;;;;;5135319;27;20231;-65
2022/09/21 10:17:05;;;;;;;1.27;1.17;;;;;;;;;;5133776;27;20241;-66
2022/09/21 10:19:33;;;;;;;1.40;1.30;;;;;;;;;;5133978;27;20614;-65
2022/09/21 10:22:01;;;;;;;3.70;1.43;;;;;;;;;;5134240;27;20286;-65
2022/09/21 10:24:39;;;;;;;1.70;1.20;;;;;;;;;;5134277;27;20254;-66
2022/09/21 10:27:10;;;;;;;2.13;1.53;;;;;;;;;;5151600;27;20293;-66
2022/09/21 10:29:42;;;;;;;4.00;1.60;;;;;;;;;;5113708;27;20264;-65
2022/09/21 10:32:12;;;;;;;2.00;1.30;;;;;;;;;;5113069;27;20550;-65
2022/09/21 10:34:41;;;;;;;2.53;1.27;;;;;;;;;;5113096;27;20223;-65
2022/09/21 10:37:41;;;;;;;1.63;1.20;;;;;;;;;;5131543;27;20290;-66
2022/09/21 10:40:21;;;;;;;1.38;1.10;;;;;;;;;;5069874;27;20740;-65
2022/09/21 10:42:50;;;;;;;1.75;1.40;;;;;;;;;;5113332;27;20207;-64
2022/09/21 10:45:17;;;;;;;1.75;1.38;;;;;;;;;;5113232;27;20228;-66
2022/09/21 10:47:44;;;;;;;3.85;1.55;;;;;;;;;;5113640;27;20306;-66
2022/09/21 10:50:31;;;;;;;2.78;1.45;;;;;;;;;;5113002;27;20290;-65
2022/09/21 10:53:00;;;;;;;1.48;1.40;;;;;;;;;;5112994;27;20199;-66
2022/09/21 10:55:29;;;;;;;2.20;1.30;;;;;;;;;;5113095;27;20261;-66
2022/09/21 10:57:56;;;;;;;2.40;1.20;;;;;;;;;;5112570;27;20294;-65
2022/09/21 11:00:24;;;;;;;1.35;1.25;;;;;;;;;;5112586;28;20207;-65
2022/09/21 11:02:54;;;;;;;1.52;1.30;;;;;;;;;;5113498;27;20206;-65
2022/09/21 11:05:25;;;;;;;1.38;1.08;;;;;;;;;;5111667;28;20273;-65
2022/09/21 11:07:56;;;;;;;1.67;1.10;;;;;;;;;;5112757;28;20298;-65
2022/09/21 11:10:42;;;;;;;1.45;1.35;;;;;;;;;;5112854;28;20191;-64
2022/09/21 11:13:30;;;;;;;3.83;0.98;;;;;;;;;;5113217;28;20271;-65
2022/09/21 11:16:01;;;;;;;1.10;0.90;;;;;;;;;;5112420;28;20234;-65
2022/09/21 11:18:38;;;;;;;1.20;1.00;;;;;;;;;;5113281;28;20217;-65
2022/09/21 11:21:10;;;;;;;1.48;1.00;;;;;;;;;;5125736;27;20289;-65
2022/09/21 11:23:52;;;;;;;1.08;0.90;;;;;;;;;;5133533;27;20600;-66
2022/09/21 11:26:55;;;;;;;1.45;1.00;;;;;;;;;;5132944;27;20209;-66
2022/09/21 11:29:41;;;;;;;1.27;1.17;;;;;;;;;;5028092;28;20210;-66
2022/09/21 11:32:17;;;;;;;0.80;0.80;;;;;;;;;;5117772;28;20246;-65
2022/09/21 11:34:47;;;;;;;0.77;0.77;;;;;;;;;;5123137;28;20309;-66
2022/09/21 11:37:30;;;;;;;0.85;0.85;;;;;;;;;;5113724;28;20286;-66
2022/09/21 11:40:06;;;;;;;0.75;0.75;;;;;;;;;;5113328;28;20219;-66
2022/09/21 11:42:53;;;;;;;2.70;1.30;;;;;;;;;;5113332;28;20212;-65
2022/09/21 11:45:20;;;;;;;1.48;1.10;;;;;;;;;;5112471;28;20278;-65
2022/09/21 11:47:47;;;;;;;2.35;1.02;;;;;;;;;;5112306;28;20244;-66
2022/09/21 11:50:34;;;;;;;2.10;1.00;;;;;;;;;;5113036;28;20291;-65
2022/09/21 11:53:21;;;;;;;1.08;1.00;;;;;;;;;;5112341;28;20210;-66
2022/09/21 11:55:48;;;;;;;1.52;0.80;;;;;;;;;;5120394;28;20231;-64
2022/09/21 11:58:37;;;;;;;0.85;0.70;;;;;;;;;;5111937;28;20203;-66
2022/09/21 12:01:14;;;;;;;1.60;0.70;;;;;;;;;;5111817;28;20200;-65
2022/09/21 12:03:44;;;;;;;0.90;0.90;;;;;;;;;;5105855;28;20298;-66
2022/09/21 12:06:31;;;;;;;0.95;0.80;;;;;;;;;;5110077;27;20291;-64
2022/09/21 12:08:58;;;;;;;0.82;0.82;;;;;;;;;;5111304;28;20210;-66
2022/09/21 12:11:28;;;;;;;1.88;0.77;;;;;;;;;;5117390;27;20249;-65
2022/09/21 12:14:02;;;;;;;1.10;0.80;;;;;;;;;;5129537;27;20227;-66
2022/09/21 12:16:29;;;;;;;1.45;0.80;;;;;;;;;;5114515;27;20792;-65
2022/09/21 12:18:56;;;;;;;0.80;0.80;;;;;;;;;;5115631;27;20203;-66
2022/09/21 12:21:27;;;;;;;0.93;0.93;;;;;;;;;;5112803;27;20252;-66
2022/09/21 12:23:54;;;;;;;1.15;1.00;;;;;;;;;;5109773;27;20226;-66
2022/09/21 12:26:44;;;;;;;1.00;0.98;;;;;;;;;;5115538;27;20199;-66
2022/09/21 12:29:14;;;;;;;0.80;0.80;;;;;;;;;;5117828;27;20668;-65
2022/09/21 12:31:51;;;;;;;1.92;1.10;;;;;;;;;;5133716;27;20215;-65
2022/09/21 12:34:21;;;;;;;2.28;1.02;;;;;;;;;;5115022;27;20219;-65
2022/09/21 12:37:04;;;;;;;0.93;0.88;;;;;;;;;;5114626;27;20366;-64
2022/09/21 12:39:50;;;;;;;3.75;2.30;;;;;;;;;;5114277;27;20661;-66
2022/09/21 12:42:21;;;;;;;2.55;2.22;;;;;;;;;;5114564;27;20209;-65
2022/09/21 12:44:52;;;;;;;1.50;1.40;;;;;;;;;;5139518;27;20708;-65
2022/09/21 12:47:23;;;;;;;1.30;1.23;;;;;;;;;;5114347;27;20711;-64
2022/09/21 12:49:55;;;;;;;1.80;0.80;;;;;;;;;;5115446;27;20293;-65
2022/09/21 12:52:25;;;;;;;0.80;0.80;;;;;;;;;;5114370;27;20206;-64
2022/09/21 12:55:04;;;;;;;1.05;1.02;;;;;;;;;;5114812;27;20291;-65
2022/09/21 12:57:45;;;;;;;1.13;0.90;;;;;;;;;;5113683;27;20199;-66
2022/09/21 13:00:51;;;;;;;0.93;0.93;;;;;;;;;;5117632;27;20196;-65
2022/09/21 13:03:29;;;;;;;1.25;1.13;;;;;;;;;;5112877;27;20206;-65
2022/09/21 13:06:05;;;;;;;0.93;0.65;;;;;;;;;;5102547;28;20677;-65
2022/09/21 13:08:35;;;;;;;0.98;0.98;;;;;;;;;;5114544;27;20209;-66
2022/09/21 13:11:07;;;;;;;0.82;0.70;;;;;;;;;;5111235;27;20216;-65
2022/09/21 13:13:40;;;;;;;0.80;0.80;;;;;;;;;;5104715;27;20213;-65
2022/09/21 13:16:21;;;;;;;0.85;0.85;;;;;;;;;;5114487;27;20223;-65
2022/09/21 13:18:54;;;;;;;1.50;0.85;;;;;;;;;;5127738;27;20203;-66
2022/09/21 13:21:28;;;;;;;0.90;0.90;;;;;;;;;;5110118;27;20260;-66
2022/09/21 13:23:57;;;;;;;0.90;0.80;;;;;;;;;;5114530;27;20215;-66
2022/09/21 13:26:41;;;;;;;1.20;0.90;;;;;;;;;;5114542;27;20275;-65
2022/09/21 13:29:18;;;;;;;1.88;1.02;;;;;;;;;;5114355;27;20217;-64
2022/09/21 13:31:56;;;;;;;2.03;1.05;;;;;;;;;;5094112;28;20306;-65
2022/09/21 13:34:36;;;;;;;2.95;1.30;;;;;;;;;;5105084;27;20796;-65
2022/09/21 13:37:19;;;;;;;1.98;1.35;;;;;;;;;;5125903;27;20294;-65
2022/09/21 13:39:56;;;;;;;1.15;1.10;;;;;;;;;;5135076;27;20600;-65
2022/09/21 13:42:32;;;;;;;1.30;1.05;;;;;;;;;;5153558;27;20202;-65
2022/09/21 13:45:12;;;;;;;1.60;1.35;;;;;;;;;;5135071;27;20646;-65
2022/09/21 13:47:40;;;;;;;2.72;1.25;;;;;;;;;;5128721;27;20728;-65
2022/09/21 13:50:24;;;;;;;1.25;1.17;;;;;;;;;;5113925;27;20199;-65
2022/09/21 13:52:54;;;;;;;0.90;0.90;;;;;;;;;;5114687;27;20203;-65
2022/09/21 13:55:32;;;;;;;1.15;1.05;;;;;;;;;;5114023;27;20261;-65
2022/09/21 13:58:04;;;;;;;1.23;1.00;;;;;;;;;;5113093;27;20203;-65
2022/09/21 14:00:32;;;;;;;1.38;1.15;;;;;;;;;;5113698;27;20265;-65
2022/09/21 14:03:02;;;;;;;1.13;1.00;;;;;;;;;;5114049;27;20673;-65
2022/09/21 14:05:30;;;;;;;1.48;1.20;;;;;;;;;;5113907;27;20598;-66
2022/09/21 14:08:21;;;;;;;1.60;1.00;;;;;;;;;;5114070;27;20290;-65
2022/09/21 14:11:01;;;;;;;1.17;1.10;;;;;;;;;;5111472;27;20218;-65
2022/09/21 14:13:40;;;;;;;1.10;1.10;;;;;;;;;;5093894;28;20295;-65
2022/09/21 14:16:32;;;;;;;0.90;0.90;;;;;;;;;;5093348;28;20234;-66
2022/09/21 14:19:01;;;;;;;2.15;1.15;;;;;;;;;;5091738;28;20200;-66
2022/09/21 14:21:28;;;;;;;1.13;1.05;;;;;;;;;;5111626;27;20622;-65
2022/09/21 14:24:17;;;;;;;1.20;1.10;;;;;;;;;;5113439;27;20215;-65
2022/09/21 14:26:48;;;;;;;1.52;1.13;;;;;;;;;;5113288;27;20217;-66
2022/09/21 14:29:21;;;;;;;1.17;1.10;;;;;;;;;;5113225;27;20213;-63
2022/09/21 14:31:49;;;;;;;1.33;1.23;;;;;;;;;;5113141;27;20216;-65
2022/09/21 14:34:21;;;;;;;1.83;1.48;;;;;;;;;;5113158;27;20701;-65
2022/09/21 14:36:50;;;;;;;1.83;1.38;;;;;;;;;;5112315;28;20272;-65
2022/09/21 14:39:33;;;;;;;1.75;0.95;;;;;;;;;;5113542;27;20282;-65
2022/09/21 14:42:11;;;;;;;2.20;1.10;;;;;;;;;;5131082;27;20294;-66
2022/09/21 14:44:39;;;;;;;1.90;1.30;;;;;;;;;;5113614;27;20223;-65
2022/09/21 14:47:14;;;;;;;2.40;1.50;;;;;;;;;;5112279;27;20210;-65
2022/09/21 14:50:00;;;;;;;2.63;1.17;;;;;;;;;;5092590;28;20678;-65
2022/09/21 14:52:39;;;;;;;1.45;1.20;;;;;;;;;;5113831;27;20573;-65
2022/09/21 14:55:07;;;;;;;1.08;1.05;;;;;;;;;;5112868;27;20223;-65
2022/09/21 14:57:47;;;;;;;1.20;1.20;;;;;;;;;;5112573;28;20606;-65
2022/09/21 15:00:22;;;;;;;1.30;1.13;;;;;;;;;;5112794;27;20651;-66
2022/09/21 15:02:56;;;;;;;2.00;1.10;;;;;;;;;;5112904;28;20215;-64
2022/09/21 15:05:33;;;;;;;0.90;0.90;;;;;;;;;;5112326;27;20218;-64
2022/09/21 15:10:55;;;;;;;0.90;0.90;;;;;;;;;;5131980;28;20643;-65
2022/09/21 15:13:37;;;;;;;1.35;1.10;;;;;;;;;;5112648;28;20298;-64
2022/09/21 15:16:16;;;;;;;1.40;1.20;;;;;;;;;;5112424;28;20227;-65
2022/09/21 15:18:49;;;;;;;0.95;0.85;;;;;;;;;;5113388;28;20238;-65
2022/09/21 15:21:21;;;;;;;1.10;0.85;;;;;;;;;;5108348;28;20661;-65